sensor_id;sensor_type;location;lat;lon;timestamp;P1;durP1;ratioP1;P2;durP2;ratioP2
29730;SDS011;16639;51.488;0.152;2023-09-18T00:00:44;39.95;;;21.52;;
29730;SDS011;16639;51.488;0.152;2023-09-18T00:03:13;24.85;;;13.20;;
29730;SDS011;16639;51.488;0.152;2023-09-18T00:05:40;19.00;;;9.52;;
29730;SDS011;16639;51.488;0.152;2023-09-18T00:08:08;15.35;;;7.20;;
29730;SDS011;16639;51.488;0.152;2023-09-18T00:10:35;11.13;;;5.60;;
29730;SDS011;16639;51.488;0.152;2023-09-18T00:13:03;9.52;;;3.90;;
29730;SDS011;16639;51.488;0.152;2023-09-18T00:15:30;10.07;;;4.20;;
29730;SDS011;16639;51.488;0.152;2023-09-18T00:17:58;14.50;;;4.28;;
29730;SDS011;16639;51.488;0.152;2023-09-18T00:20:26;7.05;;;3.92;;
29730;SDS011;16639;51.488;0.152;2023-09-18T00:22:54;10.43;;;3.92;;
29730;SDS011;16639;51.488;0.152;2023-09-18T00:25:22;7.30;;;3.55;;
29730;SDS011;16639;51.488;0.152;2023-09-18T00:27:50;16.77;;;3.92;;
29730;SDS011;16639;51.488;0.152;2023-09-18T00:30:18;8.20;;;4.05;;
29730;SDS011;16639;51.488;0.152;2023-09-18T00:32:46;9.70;;;3.95;;
29730;SDS011;16639;51.488;0.152;2023-09-18T00:35:17;10.95;;;4.28;;
29730;SDS011;16639;51.488;0.152;2023-09-18T00:37:44;6.82;;;3.78;;
29730;SDS011;16639;51.488;0.152;2023-09-18T00:40:12;8.98;;;3.45;;
29730;SDS011;16639;51.488;0.152;2023-09-18T00:42:39;6.00;;;3.47;;
29730;SDS011;16639;51.488;0.152;2023-09-18T00:45:07;6.00;;;4.47;;
29730;SDS011;16639;51.488;0.152;2023-09-18T00:47:36;9.25;;;3.45;;
29730;SDS011;16639;51.488;0.152;2023-09-18T00:50:05;8.65;;;3.25;;
29730;SDS011;16639;51.488;0.152;2023-09-18T00:52:37;7.15;;;3.00;;
29730;SDS011;16639;51.488;0.152;2023-09-18T00:55:05;8.70;;;3.72;;
29730;SDS011;16639;51.488;0.152;2023-09-18T00:57:33;8.73;;;3.60;;
29730;SDS011;16639;51.488;0.152;2023-09-18T01:00:02;8.13;;;3.47;;
29730;SDS011;16639;51.488;0.152;2023-09-18T01:02:32;7.30;;;3.55;;
29730;SDS011;16639;51.488;0.152;2023-09-18T01:04:59;10.70;;;3.63;;
29730;SDS011;16639;51.488;0.152;2023-09-18T01:07:28;6.43;;;2.83;;
29730;SDS011;16639;51.488;0.152;2023-09-18T01:09:56;8.13;;;2.80;;
29730;SDS011;16639;51.488;0.152;2023-09-18T01:12:27;9.13;;;2.80;;
29730;SDS011;16639;51.488;0.152;2023-09-18T01:15:22;5.55;;;2.88;;
29730;SDS011;16639;51.488;0.152;2023-09-18T01:17:58;8.18;;;2.63;;
29730;SDS011;16639;51.488;0.152;2023-09-18T01:20:26;7.97;;;2.33;;
29730;SDS011;16639;51.488;0.152;2023-09-18T01:22:54;6.35;;;2.45;;
29730;SDS011;16639;51.488;0.152;2023-09-18T01:25:22;6.97;;;2.90;;
29730;SDS011;16639;51.488;0.152;2023-09-18T01:27:49;7.63;;;1.88;;
29730;SDS011;16639;51.488;0.152;2023-09-18T01:30:18;5.00;;;2.20;;
29730;SDS011;16639;51.488;0.152;2023-09-18T01:32:46;3.85;;;2.13;;
29730;SDS011;16639;51.488;0.152;2023-09-18T01:35:14;3.75;;;2.20;;
29730;SDS011;16639;51.488;0.152;2023-09-18T01:37:42;7.45;;;2.38;;
29730;SDS011;16639;51.488;0.152;2023-09-18T01:40:11;2.92;;;1.90;;
29730;SDS011;16639;51.488;0.152;2023-09-18T01:42:39;4.28;;;2.35;;
29730;SDS011;16639;51.488;0.152;2023-09-18T01:45:08;3.28;;;2.00;;
29730;SDS011;16639;51.488;0.152;2023-09-18T01:47:36;5.30;;;3.03;;
29730;SDS011;16639;51.488;0.152;2023-09-18T01:50:05;4.53;;;2.40;;
29730;SDS011;16639;51.488;0.152;2023-09-18T01:52:32;7.50;;;2.70;;
29730;SDS011;16639;51.488;0.152;2023-09-18T01:55:03;10.68;;;3.50;;
29730;SDS011;16639;51.488;0.152;2023-09-18T01:57:31;6.95;;;2.63;;
29730;SDS011;16639;51.488;0.152;2023-09-18T01:59:59;5.45;;;2.58;;
29730;SDS011;16639;51.488;0.152;2023-09-18T02:02:27;5.05;;;2.35;;
29730;SDS011;16639;51.488;0.152;2023-09-18T02:05:14;10.55;;;3.95;;
29730;SDS011;16639;51.488;0.152;2023-09-18T02:07:42;5.30;;;2.40;;
29730;SDS011;16639;51.488;0.152;2023-09-18T02:10:10;6.97;;;3.05;;
29730;SDS011;16639;51.488;0.152;2023-09-18T02:12:39;3.83;;;3.05;;
29730;SDS011;16639;51.488;0.152;2023-09-18T02:15:07;4.95;;;2.60;;
29730;SDS011;16639;51.488;0.152;2023-09-18T02:17:37;10.02;;;3.05;;
29730;SDS011;16639;51.488;0.152;2023-09-18T02:20:05;6.05;;;2.88;;
29730;SDS011;16639;51.488;0.152;2023-09-18T02:22:39;4.88;;;2.25;;
29730;SDS011;16639;51.488;0.152;2023-09-18T02:25:08;6.28;;;2.70;;
29730;SDS011;16639;51.488;0.152;2023-09-18T02:27:35;8.20;;;2.92;;
29730;SDS011;16639;51.488;0.152;2023-09-18T02:30:03;6.18;;;2.55;;
29730;SDS011;16639;51.488;0.152;2023-09-18T02:32:31;9.90;;;2.67;;
29730;SDS011;16639;51.488;0.152;2023-09-18T02:34:59;7.32;;;3.63;;
29730;SDS011;16639;51.488;0.152;2023-09-18T02:37:27;7.82;;;2.88;;
29730;SDS011;16639;51.488;0.152;2023-09-18T02:39:56;5.60;;;2.60;;
29730;SDS011;16639;51.488;0.152;2023-09-18T02:42:23;8.05;;;2.90;;
29730;SDS011;16639;51.488;0.152;2023-09-18T02:44:51;3.20;;;2.38;;
29730;SDS011;16639;51.488;0.152;2023-09-18T02:47:18;5.22;;;2.63;;
29730;SDS011;16639;51.488;0.152;2023-09-18T02:49:46;6.25;;;2.80;;
29730;SDS011;16639;51.488;0.152;2023-09-18T02:52:14;9.30;;;3.08;;
29730;SDS011;16639;51.488;0.152;2023-09-18T02:54:41;6.70;;;2.70;;
29730;SDS011;16639;51.488;0.152;2023-09-18T02:57:08;8.63;;;2.45;;
29730;SDS011;16639;51.488;0.152;2023-09-18T02:59:36;5.00;;;2.97;;
29730;SDS011;16639;51.488;0.152;2023-09-18T03:02:03;8.98;;;2.83;;
29730;SDS011;16639;51.488;0.152;2023-09-18T03:04:31;4.88;;;3.25;;
29730;SDS011;16639;51.488;0.152;2023-09-18T03:06:59;9.45;;;2.95;;
29730;SDS011;16639;51.488;0.152;2023-09-18T03:09:26;10.45;;;3.47;;
29730;SDS011;16639;51.488;0.152;2023-09-18T03:11:54;5.82;;;3.55;;
29730;SDS011;16639;51.488;0.152;2023-09-18T03:14:21;7.18;;;3.03;;
29730;SDS011;16639;51.488;0.152;2023-09-18T03:16:49;7.68;;;3.85;;
29730;SDS011;16639;51.488;0.152;2023-09-18T03:19:17;5.75;;;2.90;;
29730;SDS011;16639;51.488;0.152;2023-09-18T03:21:44;10.80;;;3.65;;
29730;SDS011;16639;51.488;0.152;2023-09-18T03:24:12;8.32;;;3.75;;
29730;SDS011;16639;51.488;0.152;2023-09-18T03:26:39;9.32;;;3.50;;
29730;SDS011;16639;51.488;0.152;2023-09-18T03:29:07;8.15;;;3.78;;
29730;SDS011;16639;51.488;0.152;2023-09-18T03:31:34;10.15;;;3.17;;
29730;SDS011;16639;51.488;0.152;2023-09-18T03:34:02;5.20;;;3.40;;
29730;SDS011;16639;51.488;0.152;2023-09-18T03:36:29;11.52;;;4.20;;
29730;SDS011;16639;51.488;0.152;2023-09-18T03:38:57;16.20;;;3.78;;
29730;SDS011;16639;51.488;0.152;2023-09-18T03:41:25;6.55;;;3.53;;
29730;SDS011;16639;51.488;0.152;2023-09-18T03:43:52;8.93;;;3.95;;
29730;SDS011;16639;51.488;0.152;2023-09-18T03:46:20;8.02;;;3.95;;
29730;SDS011;16639;51.488;0.152;2023-09-18T03:48:47;5.20;;;3.50;;
29730;SDS011;16639;51.488;0.152;2023-09-18T03:51:15;10.23;;;4.82;;
29730;SDS011;16639;51.488;0.152;2023-09-18T03:53:43;9.98;;;4.07;;
29730;SDS011;16639;51.488;0.152;2023-09-18T03:56:11;8.07;;;3.95;;
29730;SDS011;16639;51.488;0.152;2023-09-18T03:58:38;8.57;;;4.13;;
29730;SDS011;16639;51.488;0.152;2023-09-18T04:01:05;8.98;;;3.55;;
29730;SDS011;16639;51.488;0.152;2023-09-18T04:03:34;7.15;;;4.13;;
29730;SDS011;16639;51.488;0.152;2023-09-18T04:06:01;10.55;;;4.13;;
29730;SDS011;16639;51.488;0.152;2023-09-18T04:08:30;11.50;;;4.97;;
29730;SDS011;16639;51.488;0.152;2023-09-18T04:10:57;9.73;;;4.28;;
29730;SDS011;16639;51.488;0.152;2023-09-18T04:13:25;12.18;;;4.28;;
29730;SDS011;16639;51.488;0.152;2023-09-18T04:15:53;8.02;;;3.90;;
29730;SDS011;16639;51.488;0.152;2023-09-18T04:18:24;8.55;;;3.80;;
29730;SDS011;16639;51.488;0.152;2023-09-18T04:20:51;10.07;;;4.10;;
29730;SDS011;16639;51.488;0.152;2023-09-18T04:23:20;13.48;;;4.70;;
29730;SDS011;16639;51.488;0.152;2023-09-18T04:25:52;10.40;;;5.13;;
29730;SDS011;16639;51.488;0.152;2023-09-18T04:28:21;9.88;;;5.40;;
29730;SDS011;16639;51.488;0.152;2023-09-18T04:30:49;11.65;;;4.30;;
29730;SDS011;16639;51.488;0.152;2023-09-18T04:33:17;13.90;;;6.28;;
29730;SDS011;16639;51.488;0.152;2023-09-18T04:35:45;21.75;;;6.13;;
29730;SDS011;16639;51.488;0.152;2023-09-18T04:38:12;15.30;;;5.95;;
29730;SDS011;16639;51.488;0.152;2023-09-18T04:40:44;14.48;;;4.72;;
29730;SDS011;16639;51.488;0.152;2023-09-18T04:43:12;8.88;;;4.70;;
29730;SDS011;16639;51.488;0.152;2023-09-18T04:45:40;10.73;;;4.90;;
29730;SDS011;16639;51.488;0.152;2023-09-18T04:48:10;10.77;;;5.65;;
29730;SDS011;16639;51.488;0.152;2023-09-18T04:50:37;17.23;;;5.13;;
29730;SDS011;16639;51.488;0.152;2023-09-18T04:53:05;15.52;;;4.80;;
29730;SDS011;16639;51.488;0.152;2023-09-18T04:55:32;21.63;;;5.32;;
29730;SDS011;16639;51.488;0.152;2023-09-18T04:58:00;14.30;;;5.13;;
29730;SDS011;16639;51.488;0.152;2023-09-18T05:00:27;10.35;;;4.80;;
29730;SDS011;16639;51.488;0.152;2023-09-18T05:02:56;14.70;;;4.70;;
29730;SDS011;16639;51.488;0.152;2023-09-18T05:05:28;8.23;;;4.40;;
29730;SDS011;16639;51.488;0.152;2023-09-18T05:07:58;11.10;;;5.65;;
29730;SDS011;16639;51.488;0.152;2023-09-18T05:10:25;25.55;;;6.55;;
29730;SDS011;16639;51.488;0.152;2023-09-18T05:12:53;17.20;;;5.38;;
29730;SDS011;16639;51.488;0.152;2023-09-18T05:15:26;11.75;;;5.85;;
29730;SDS011;16639;51.488;0.152;2023-09-18T05:17:56;18.20;;;6.43;;
29730;SDS011;16639;51.488;0.152;2023-09-18T05:20:26;11.10;;;4.85;;
29730;SDS011;16639;51.488;0.152;2023-09-18T05:22:55;14.50;;;6.45;;
29730;SDS011;16639;51.488;0.152;2023-09-18T05:25:25;19.65;;;6.03;;
29730;SDS011;16639;51.488;0.152;2023-09-18T05:27:56;12.57;;;6.82;;
29730;SDS011;16639;51.488;0.152;2023-09-18T05:30:25;12.10;;;6.47;;
29730;SDS011;16639;51.488;0.152;2023-09-18T05:32:58;14.52;;;6.72;;
29730;SDS011;16639;51.488;0.152;2023-09-18T05:35:33;15.35;;;6.80;;
29730;SDS011;16639;51.488;0.152;2023-09-18T05:38:08;14.65;;;7.07;;
29730;SDS011;16639;51.488;0.152;2023-09-18T05:40:37;22.25;;;7.90;;
29730;SDS011;16639;51.488;0.152;2023-09-18T05:43:04;15.13;;;6.78;;
29730;SDS011;16639;51.488;0.152;2023-09-18T05:45:32;17.23;;;7.75;;
29730;SDS011;16639;51.488;0.152;2023-09-18T05:48:00;14.00;;;8.63;;
29730;SDS011;16639;51.488;0.152;2023-09-18T05:50:31;17.05;;;8.80;;
29730;SDS011;16639;51.488;0.152;2023-09-18T05:53:01;11.93;;;7.97;;
29730;SDS011;16639;51.488;0.152;2023-09-18T05:55:31;21.63;;;8.73;;
29730;SDS011;16639;51.488;0.152;2023-09-18T05:58:00;12.85;;;8.25;;
29730;SDS011;16639;51.488;0.152;2023-09-18T06:00:30;16.60;;;8.93;;
29730;SDS011;16639;51.488;0.152;2023-09-18T06:02:58;12.40;;;8.43;;
29730;SDS011;16639;51.488;0.152;2023-09-18T06:05:26;17.20;;;7.93;;
29730;SDS011;16639;51.488;0.152;2023-09-18T06:07:54;20.88;;;9.02;;
29730;SDS011;16639;51.488;0.152;2023-09-18T06:10:21;20.58;;;9.15;;
29730;SDS011;16639;51.488;0.152;2023-09-18T06:12:48;16.13;;;7.90;;
29730;SDS011;16639;51.488;0.152;2023-09-18T06:15:16;18.27;;;9.35;;
29730;SDS011;16639;51.488;0.152;2023-09-18T06:17:44;13.98;;;8.55;;
29730;SDS011;16639;51.488;0.152;2023-09-18T06:20:12;13.95;;;9.57;;
29730;SDS011;16639;51.488;0.152;2023-09-18T06:22:40;15.52;;;8.98;;
29730;SDS011;16639;51.488;0.152;2023-09-18T06:25:08;16.13;;;9.88;;
29730;SDS011;16639;51.488;0.152;2023-09-18T06:27:41;19.90;;;9.70;;
29730;SDS011;16639;51.488;0.152;2023-09-18T06:30:09;13.98;;;9.20;;
29730;SDS011;16639;51.488;0.152;2023-09-18T06:32:37;22.25;;;9.90;;
29730;SDS011;16639;51.488;0.152;2023-09-18T06:35:05;17.05;;;10.07;;
29730;SDS011;16639;51.488;0.152;2023-09-18T06:37:33;13.63;;;9.13;;
29730;SDS011;16639;51.488;0.152;2023-09-18T06:40:00;16.10;;;9.52;;
29730;SDS011;16639;51.488;0.152;2023-09-18T06:42:31;15.75;;;9.90;;
29730;SDS011;16639;51.488;0.152;2023-09-18T06:44:59;16.33;;;10.25;;
29730;SDS011;16639;51.488;0.152;2023-09-18T06:47:28;18.77;;;10.00;;
29730;SDS011;16639;51.488;0.152;2023-09-18T06:49:56;13.98;;;9.45;;
29730;SDS011;16639;51.488;0.152;2023-09-18T06:52:23;17.08;;;9.13;;
29730;SDS011;16639;51.488;0.152;2023-09-18T06:54:52;17.67;;;11.02;;
29730;SDS011;16639;51.488;0.152;2023-09-18T06:57:19;15.98;;;8.90;;
29730;SDS011;16639;51.488;0.152;2023-09-18T06:59:48;11.52;;;9.18;;
29730;SDS011;16639;51.488;0.152;2023-09-18T07:02:16;17.80;;;10.52;;
29730;SDS011;16639;51.488;0.152;2023-09-18T07:04:44;17.30;;;10.07;;
29730;SDS011;16639;51.488;0.152;2023-09-18T07:07:14;14.82;;;10.15;;
29730;SDS011;16639;51.488;0.152;2023-09-18T07:09:42;18.52;;;10.48;;
29730;SDS011;16639;51.488;0.152;2023-09-18T07:12:29;17.52;;;9.30;;
29730;SDS011;16639;51.488;0.152;2023-09-18T07:15:00;16.85;;;8.57;;
29730;SDS011;16639;51.488;0.152;2023-09-18T07:17:30;11.98;;;8.02;;
29730;SDS011;16639;51.488;0.152;2023-09-18T07:19:59;15.65;;;10.18;;
29730;SDS011;16639;51.488;0.152;2023-09-18T07:22:27;16.80;;;9.55;;
29730;SDS011;16639;51.488;0.152;2023-09-18T07:24:57;16.15;;;9.40;;
29730;SDS011;16639;51.488;0.152;2023-09-18T07:27:25;11.95;;;9.38;;
29730;SDS011;16639;51.488;0.152;2023-09-18T07:32:22;12.23;;;8.90;;
29730;SDS011;16639;51.488;0.152;2023-09-18T07:35:04;16.65;;;8.63;;
29730;SDS011;16639;51.488;0.152;2023-09-18T07:37:36;17.10;;;9.90;;
29730;SDS011;16639;51.488;0.152;2023-09-18T07:40:04;17.75;;;8.55;;
29730;SDS011;16639;51.488;0.152;2023-09-18T07:42:33;12.00;;;7.40;;
29730;SDS011;16639;51.488;0.152;2023-09-18T07:45:00;13.70;;;8.23;;
29730;SDS011;16639;51.488;0.152;2023-09-18T07:47:28;14.52;;;8.30;;
29730;SDS011;16639;51.488;0.152;2023-09-18T07:49:58;11.13;;;8.23;;
29730;SDS011;16639;51.488;0.152;2023-09-18T07:52:27;15.10;;;7.88;;
29730;SDS011;16639;51.488;0.152;2023-09-18T07:54:55;16.55;;;8.73;;
29730;SDS011;16639;51.488;0.152;2023-09-18T07:57:22;14.52;;;6.57;;
29730;SDS011;16639;51.488;0.152;2023-09-18T07:59:50;9.95;;;7.43;;
29730;SDS011;16639;51.488;0.152;2023-09-18T08:02:18;11.80;;;7.20;;
29730;SDS011;16639;51.488;0.152;2023-09-18T08:04:46;10.50;;;6.22;;
29730;SDS011;16639;51.488;0.152;2023-09-18T08:07:14;14.45;;;6.72;;
29730;SDS011;16639;51.488;0.152;2023-09-18T08:09:41;9.73;;;6.50;;
29730;SDS011;16639;51.488;0.152;2023-09-18T08:12:09;9.02;;;6.13;;
29730;SDS011;16639;51.488;0.152;2023-09-18T08:14:36;15.10;;;6.85;;
29730;SDS011;16639;51.488;0.152;2023-09-18T08:17:04;10.60;;;5.95;;
29730;SDS011;16639;51.488;0.152;2023-09-18T08:19:36;11.88;;;6.35;;
29730;SDS011;16639;51.488;0.152;2023-09-18T08:22:05;16.55;;;7.15;;
29730;SDS011;16639;51.488;0.152;2023-09-18T08:24:33;11.10;;;6.07;;
29730;SDS011;16639;51.488;0.152;2023-09-18T08:27:00;8.25;;;5.78;;
29730;SDS011;16639;51.488;0.152;2023-09-18T08:29:29;14.20;;;6.95;;
29730;SDS011;16639;51.488;0.152;2023-09-18T08:31:57;12.18;;;6.45;;
29730;SDS011;16639;51.488;0.152;2023-09-18T08:34:24;13.82;;;5.90;;
29730;SDS011;16639;51.488;0.152;2023-09-18T08:36:55;13.15;;;5.60;;
29730;SDS011;16639;51.488;0.152;2023-09-18T08:39:22;10.65;;;5.78;;
29730;SDS011;16639;51.488;0.152;2023-09-18T08:41:50;19.33;;;5.78;;
29730;SDS011;16639;51.488;0.152;2023-09-18T08:44:22;9.27;;;5.35;;
29730;SDS011;16639;51.488;0.152;2023-09-18T08:46:54;13.65;;;5.55;;
29730;SDS011;16639;51.488;0.152;2023-09-18T08:49:23;12.25;;;4.50;;
29730;SDS011;16639;51.488;0.152;2023-09-18T08:51:51;9.88;;;4.82;;
29730;SDS011;16639;51.488;0.152;2023-09-18T08:54:23;10.82;;;4.80;;
29730;SDS011;16639;51.488;0.152;2023-09-18T08:56:51;11.88;;;5.15;;
29730;SDS011;16639;51.488;0.152;2023-09-18T08:59:21;6.43;;;4.35;;
29730;SDS011;16639;51.488;0.152;2023-09-18T09:01:49;16.92;;;5.00;;
29730;SDS011;16639;51.488;0.152;2023-09-18T09:04:16;13.40;;;4.55;;
29730;SDS011;16639;51.488;0.152;2023-09-18T09:06:44;6.07;;;4.65;;
29730;SDS011;16639;51.488;0.152;2023-09-18T09:09:11;13.45;;;5.28;;
29730;SDS011;16639;51.488;0.152;2023-09-18T09:11:40;9.35;;;5.45;;
29730;SDS011;16639;51.488;0.152;2023-09-18T09:14:17;9.57;;;4.93;;
29730;SDS011;16639;51.488;0.152;2023-09-18T09:16:56;9.30;;;4.60;;
29730;SDS011;16639;51.488;0.152;2023-09-18T09:19:29;12.48;;;4.53;;
29730;SDS011;16639;51.488;0.152;2023-09-18T09:21:58;8.85;;;4.60;;
29730;SDS011;16639;51.488;0.152;2023-09-18T09:24:38;7.43;;;3.75;;
29730;SDS011;16639;51.488;0.152;2023-09-18T09:27:07;8.35;;;4.53;;
29730;SDS011;16639;51.488;0.152;2023-09-18T09:29:35;10.55;;;4.68;;
29730;SDS011;16639;51.488;0.152;2023-09-18T09:34:41;7.63;;;3.67;;
29730;SDS011;16639;51.488;0.152;2023-09-18T09:37:09;9.50;;;3.63;;
29730;SDS011;16639;51.488;0.152;2023-09-18T09:39:50;5.70;;;2.92;;
29730;SDS011;16639;51.488;0.152;2023-09-18T09:42:19;6.13;;;2.78;;
29730;SDS011;16639;51.488;0.152;2023-09-18T09:45:00;7.53;;;3.35;;
29730;SDS011;16639;51.488;0.152;2023-09-18T09:47:34;7.32;;;2.42;;
29730;SDS011;16639;51.488;0.152;2023-09-18T09:50:08;4.28;;;2.70;;
29730;SDS011;16639;51.488;0.152;2023-09-18T09:52:43;8.60;;;2.47;;
29730;SDS011;16639;51.488;0.152;2023-09-18T09:58:02;7.80;;;2.85;;
29730;SDS011;16639;51.488;0.152;2023-09-18T10:00:32;8.13;;;3.00;;
29730;SDS011;16639;51.488;0.152;2023-09-18T10:03:29;5.70;;;2.25;;
29730;SDS011;16639;51.488;0.152;2023-09-18T10:06:00;4.20;;;2.40;;
29730;SDS011;16639;51.488;0.152;2023-09-18T10:08:28;5.45;;;2.28;;
29730;SDS011;16639;51.488;0.152;2023-09-18T10:11:01;8.15;;;2.20;;
29730;SDS011;16639;51.488;0.152;2023-09-18T10:13:55;5.47;;;2.50;;
29730;SDS011;16639;51.488;0.152;2023-09-18T10:16:28;7.05;;;2.15;;
29730;SDS011;16639;51.488;0.152;2023-09-18T10:24:39;7.22;;;2.58;;
29730;SDS011;16639;51.488;0.152;2023-09-18T10:27:10;3.25;;;1.98;;
29730;SDS011;16639;51.488;0.152;2023-09-18T10:29:41;5.90;;;2.30;;
29730;SDS011;16639;51.488;0.152;2023-09-18T10:32:11;3.47;;;2.20;;
29730;SDS011;16639;51.488;0.152;2023-09-18T10:34:40;5.38;;;2.25;;
29730;SDS011;16639;51.488;0.152;2023-09-18T10:37:14;6.28;;;2.60;;
29730;SDS011;16639;51.488;0.152;2023-09-18T10:39:45;9.50;;;2.10;;
29730;SDS011;16639;51.488;0.152;2023-09-18T10:42:15;4.82;;;2.25;;
29730;SDS011;16639;51.488;0.152;2023-09-18T10:44:45;6.70;;;2.67;;
29730;SDS011;16639;51.488;0.152;2023-09-18T10:47:13;5.20;;;2.13;;
29730;SDS011;16639;51.488;0.152;2023-09-18T10:49:41;6.85;;;2.55;;
29730;SDS011;16639;51.488;0.152;2023-09-18T10:52:12;2.15;;;1.38;;
29730;SDS011;16639;51.488;0.152;2023-09-18T10:54:41;1.75;;;1.08;;
29730;SDS011;16639;51.488;0.152;2023-09-18T10:57:08;1.15;;;1.00;;
29730;SDS011;16639;51.488;0.152;2023-09-18T10:59:46;1.95;;;1.17;;
29730;SDS011;16639;51.488;0.152;2023-09-18T11:02:20;0.98;;;0.88;;
29730;SDS011;16639;51.488;0.152;2023-09-18T11:04:48;1.30;;;1.00;;
29730;SDS011;16639;51.488;0.152;2023-09-18T11:07:22;3.00;;;1.27;;
29730;SDS011;16639;51.488;0.152;2023-09-18T11:09:54;3.45;;;1.20;;
29730;SDS011;16639;51.488;0.152;2023-09-18T11:12:21;1.30;;;0.98;;
29730;SDS011;16639;51.488;0.152;2023-09-18T11:15:10;1.58;;;1.10;;
29730;SDS011;16639;51.488;0.152;2023-09-18T11:18:01;2.00;;;1.42;;
29730;SDS011;16639;51.488;0.152;2023-09-18T11:20:35;3.20;;;1.48;;
29730;SDS011;16639;51.488;0.152;2023-09-18T11:25:41;2.25;;;1.75;;
29730;SDS011;16639;51.488;0.152;2023-09-18T11:28:14;5.38;;;1.98;;
29730;SDS011;16639;51.488;0.152;2023-09-18T11:33:29;3.85;;;1.70;;
29730;SDS011;16639;51.488;0.152;2023-09-18T11:36:29;2.60;;;1.55;;
29730;SDS011;16639;51.488;0.152;2023-09-18T11:41:26;4.38;;;1.88;;
29730;SDS011;16639;51.488;0.152;2023-09-18T11:46:44;3.50;;;1.55;;
29730;SDS011;16639;51.488;0.152;2023-09-18T11:49:14;3.30;;;1.77;;
29730;SDS011;16639;51.488;0.152;2023-09-18T11:51:47;2.00;;;1.63;;
29730;SDS011;16639;51.488;0.152;2023-09-18T11:54:16;6.00;;;2.03;;
29730;SDS011;16639;51.488;0.152;2023-09-18T11:56:50;4.40;;;1.95;;
29730;SDS011;16639;51.488;0.152;2023-09-18T11:59:32;2.88;;;1.58;;
29730;SDS011;16639;51.488;0.152;2023-09-18T12:02:32;4.22;;;1.85;;
29730;SDS011;16639;51.488;0.152;2023-09-18T12:05:21;3.45;;;2.20;;
29730;SDS011;16639;51.488;0.152;2023-09-18T12:07:53;5.00;;;1.92;;
29730;SDS011;16639;51.488;0.152;2023-09-18T12:10:22;5.15;;;1.77;;
29730;SDS011;16639;51.488;0.152;2023-09-18T12:12:50;4.43;;;1.90;;
29730;SDS011;16639;51.488;0.152;2023-09-18T12:15:21;5.13;;;2.42;;
29730;SDS011;16639;51.488;0.152;2023-09-18T12:17:48;3.83;;;1.42;;
29730;SDS011;16639;51.488;0.152;2023-09-18T12:20:22;3.22;;;1.60;;
29730;SDS011;16639;51.488;0.152;2023-09-18T12:22:50;5.55;;;1.73;;
29730;SDS011;16639;51.488;0.152;2023-09-18T12:25:18;3.70;;;1.65;;
29730;SDS011;16639;51.488;0.152;2023-09-18T12:27:45;2.63;;;1.73;;
29730;SDS011;16639;51.488;0.152;2023-09-18T12:30:18;2.40;;;1.42;;
29730;SDS011;16639;51.488;0.152;2023-09-18T12:32:50;7.00;;;1.83;;
29730;SDS011;16639;51.488;0.152;2023-09-18T12:35:18;1.75;;;1.33;;
29730;SDS011;16639;51.488;0.152;2023-09-18T12:37:46;2.45;;;1.95;;
29730;SDS011;16639;51.488;0.152;2023-09-18T12:40:29;5.78;;;1.80;;
29730;SDS011;16639;51.488;0.152;2023-09-18T12:42:59;3.38;;;1.88;;
29730;SDS011;16639;51.488;0.152;2023-09-18T12:45:28;3.97;;;1.70;;
29730;SDS011;16639;51.488;0.152;2023-09-18T12:47:57;2.97;;;1.38;;
29730;SDS011;16639;51.488;0.152;2023-09-18T12:50:25;5.70;;;1.63;;
29730;SDS011;16639;51.488;0.152;2023-09-18T12:52:53;4.90;;;1.63;;
29730;SDS011;16639;51.488;0.152;2023-09-18T12:55:32;5.05;;;1.70;;
29730;SDS011;16639;51.488;0.152;2023-09-18T12:58:01;2.45;;;1.00;;
29730;SDS011;16639;51.488;0.152;2023-09-18T13:00:35;1.75;;;1.40;;
29730;SDS011;16639;51.488;0.152;2023-09-18T13:03:03;3.80;;;1.13;;
29730;SDS011;16639;51.488;0.152;2023-09-18T13:05:31;1.80;;;1.25;;
29730;SDS011;16639;51.488;0.152;2023-09-18T13:08:03;2.67;;;1.40;;
29730;SDS011;16639;51.488;0.152;2023-09-18T13:10:45;2.03;;;1.35;;
29730;SDS011;16639;51.488;0.152;2023-09-18T13:13:17;2.03;;;1.35;;
29730;SDS011;16639;51.488;0.152;2023-09-18T13:15:46;2.53;;;1.30;;
29730;SDS011;16639;51.488;0.152;2023-09-18T13:18:15;3.72;;;1.70;;
29730;SDS011;16639;51.488;0.152;2023-09-18T13:20:44;2.13;;;1.50;;
29730;SDS011;16639;51.488;0.152;2023-09-18T13:23:12;4.43;;;1.60;;
29730;SDS011;16639;51.488;0.152;2023-09-18T13:25:46;3.92;;;1.80;;
29730;SDS011;16639;51.488;0.152;2023-09-18T13:28:14;8.60;;;1.75;;
29730;SDS011;16639;51.488;0.152;2023-09-18T13:30:42;4.80;;;1.20;;
29730;SDS011;16639;51.488;0.152;2023-09-18T13:33:13;2.05;;;1.35;;
29730;SDS011;16639;51.488;0.152;2023-09-18T13:35:44;2.05;;;1.30;;
29730;SDS011;16639;51.488;0.152;2023-09-18T13:38:12;2.55;;;1.25;;
29730;SDS011;16639;51.488;0.152;2023-09-18T13:40:41;4.93;;;2.00;;
29730;SDS011;16639;51.488;0.152;2023-09-18T13:43:12;4.53;;;1.60;;
29730;SDS011;16639;51.488;0.152;2023-09-18T13:45:45;3.03;;;2.00;;
29730;SDS011;16639;51.488;0.152;2023-09-18T13:48:13;2.30;;;1.60;;
29730;SDS011;16639;51.488;0.152;2023-09-18T13:50:43;2.83;;;2.05;;
29730;SDS011;16639;51.488;0.152;2023-09-18T13:53:12;2.25;;;1.70;;
29730;SDS011;16639;51.488;0.152;2023-09-18T13:55:40;2.97;;;1.90;;
29730;SDS011;16639;51.488;0.152;2023-09-18T13:58:08;4.20;;;2.20;;
29730;SDS011;16639;51.488;0.152;2023-09-18T14:00:36;6.25;;;2.72;;
29730;SDS011;16639;51.488;0.152;2023-09-18T14:03:04;4.40;;;3.40;;
29730;SDS011;16639;51.488;0.152;2023-09-18T14:05:33;5.18;;;2.88;;
29730;SDS011;16639;51.488;0.152;2023-09-18T14:08:02;3.20;;;2.72;;
29730;SDS011;16639;51.488;0.152;2023-09-18T14:10:33;3.40;;;2.97;;
29730;SDS011;16639;51.488;0.152;2023-09-18T14:13:00;5.50;;;3.35;;
29730;SDS011;16639;51.488;0.152;2023-09-18T14:15:28;4.85;;;2.72;;
29730;SDS011;16639;51.488;0.152;2023-09-18T14:17:56;2.97;;;2.50;;
29730;SDS011;16639;51.488;0.152;2023-09-18T14:20:27;3.10;;;2.45;;
29730;SDS011;16639;51.488;0.152;2023-09-18T14:22:54;3.58;;;2.55;;
29730;SDS011;16639;51.488;0.152;2023-09-18T14:25:22;5.03;;;2.35;;
29730;SDS011;16639;51.488;0.152;2023-09-18T14:27:49;2.33;;;2.13;;
29730;SDS011;16639;51.488;0.152;2023-09-18T14:30:17;4.65;;;2.20;;
29730;SDS011;16639;51.488;0.152;2023-09-18T14:32:45;4.25;;;2.20;;
29730;SDS011;16639;51.488;0.152;2023-09-18T14:35:13;3.90;;;2.30;;
29730;SDS011;16639;51.488;0.152;2023-09-18T14:37:41;3.17;;;2.28;;
29730;SDS011;16639;51.488;0.152;2023-09-18T14:40:08;2.53;;;2.15;;
29730;SDS011;16639;51.488;0.152;2023-09-18T14:42:39;3.85;;;2.45;;
29730;SDS011;16639;51.488;0.152;2023-09-18T14:45:07;4.63;;;2.38;;
29730;SDS011;16639;51.488;0.152;2023-09-18T14:47:35;2.47;;;1.95;;
29730;SDS011;16639;51.488;0.152;2023-09-18T14:50:03;4.95;;;2.03;;
29730;SDS011;16639;51.488;0.152;2023-09-18T14:52:32;7.60;;;2.20;;
29730;SDS011;16639;51.488;0.152;2023-09-18T14:54:59;7.60;;;2.42;;
29730;SDS011;16639;51.488;0.152;2023-09-18T14:57:27;7.65;;;2.35;;
29730;SDS011;16639;51.488;0.152;2023-09-18T14:59:54;6.60;;;3.28;;
29730;SDS011;16639;51.488;0.152;2023-09-18T15:02:22;9.40;;;2.45;;
29730;SDS011;16639;51.488;0.152;2023-09-18T15:04:58;3.30;;;1.88;;
29730;SDS011;16639;51.488;0.152;2023-09-18T15:07:26;6.18;;;2.40;;
29730;SDS011;16639;51.488;0.152;2023-09-18T15:09:54;3.08;;;1.98;;
29730;SDS011;16639;51.488;0.152;2023-09-18T15:12:24;4.07;;;1.88;;
29730;SDS011;16639;51.488;0.152;2023-09-18T15:14:52;12.38;;;2.45;;
29730;SDS011;16639;51.488;0.152;2023-09-18T15:17:20;3.55;;;1.92;;
29730;SDS011;16639;51.488;0.152;2023-09-18T15:19:47;3.83;;;1.92;;
29730;SDS011;16639;51.488;0.152;2023-09-18T15:22:21;1.58;;;1.40;;